sensor_id;sensor_type;location;lat;lon;timestamp;P1;durP1;ratioP1;P2;durP2;ratioP2
64633;SDS011;51043;52.406;9.690;2023-05-07T00:00:37;18.83;;;16.60;;
64633;SDS011;51043;52.406;9.690;2023-05-07T00:03:06;19.20;;;17.03;;
64633;SDS011;51043;52.406;9.690;2023-05-07T00:05:34;21.77;;;16.67;;
64633;SDS011;51043;52.406;9.690;2023-05-07T00:08:07;18.57;;;16.20;;
64633;SDS011;51043;52.406;9.690;2023-05-07T00:10:35;19.33;;;17.00;;
64633;SDS011;51043;52.406;9.690;2023-05-07T00:13:08;18.13;;;16.00;;
64633;SDS011;51043;52.406;9.690;2023-05-07T00:15:37;17.63;;;15.80;;
64633;SDS011;51043;52.406;9.690;2023-05-07T00:18:07;21.53;;;16.77;;
64633;SDS011;51043;52.406;9.690;2023-05-07T00:20:36;19.43;;;17.17;;
64633;SDS011;51043;52.406;9.690;2023-05-07T00:23:09;21.47;;;17.97;;
64633;SDS011;51043;52.406;9.690;2023-05-07T00:25:37;22.47;;;17.60;;
64633;SDS011;51043;52.406;9.690;2023-05-07T00:28:09;20.90;;;16.50;;
64633;SDS011;51043;52.406;9.690;2023-05-07T00:30:37;20.07;;;16.47;;
64633;SDS011;51043;52.406;9.690;2023-05-07T00:33:07;20.63;;;17.30;;
64633;SDS011;51043;52.406;9.690;2023-05-07T00:35:35;21.70;;;17.40;;
64633;SDS011;51043;52.406;9.690;2023-05-07T00:38:04;19.33;;;16.80;;
64633;SDS011;51043;52.406;9.690;2023-05-07T00:40:33;26.57;;;17.27;;
64633;SDS011;51043;52.406;9.690;2023-05-07T00:43:01;24.53;;;18.10;;
64633;SDS011;51043;52.406;9.690;2023-05-07T00:45:31;23.53;;;18.30;;
64633;SDS011;51043;52.406;9.690;2023-05-07T00:48:01;25.50;;;18.17;;
64633;SDS011;51043;52.406;9.690;2023-05-07T00:50:31;24.40;;;19.07;;
64633;SDS011;51043;52.406;9.690;2023-05-07T00:53:00;26.40;;;18.73;;
64633;SDS011;51043;52.406;9.690;2023-05-07T00:55:28;22.30;;;17.73;;
64633;SDS011;51043;52.406;9.690;2023-05-07T00:57:59;27.53;;;19.17;;
64633;SDS011;51043;52.406;9.690;2023-05-07T01:00:27;24.33;;;19.10;;
64633;SDS011;51043;52.406;9.690;2023-05-07T01:02:57;23.97;;;19.37;;
64633;SDS011;51043;52.406;9.690;2023-05-07T01:05:25;23.33;;;18.10;;
64633;SDS011;51043;52.406;9.690;2023-05-07T01:07:57;28.37;;;20.13;;
64633;SDS011;51043;52.406;9.690;2023-05-07T01:10:26;23.13;;;18.00;;
64633;SDS011;51043;52.406;9.690;2023-05-07T01:12:57;24.17;;;19.10;;
64633;SDS011;51043;52.406;9.690;2023-05-07T01:15:26;27.00;;;19.97;;
64633;SDS011;51043;52.406;9.690;2023-05-07T01:17:56;26.07;;;19.60;;
64633;SDS011;51043;52.406;9.690;2023-05-07T01:20:30;28.03;;;19.47;;
64633;SDS011;51043;52.406;9.690;2023-05-07T01:23:00;25.03;;;19.43;;
64633;SDS011;51043;52.406;9.690;2023-05-07T01:25:29;23.03;;;18.83;;
64633;SDS011;51043;52.406;9.690;2023-05-07T01:28:00;23.43;;;18.50;;
64633;SDS011;51043;52.406;9.690;2023-05-07T01:30:32;24.23;;;19.03;;
64633;SDS011;51043;52.406;9.690;2023-05-07T01:33:06;27.10;;;19.90;;
64633;SDS011;51043;52.406;9.690;2023-05-07T01:35:37;31.40;;;20.03;;
64633;SDS011;51043;52.406;9.690;2023-05-07T01:38:15;28.10;;;20.63;;
64633;SDS011;51043;52.406;9.690;2023-05-07T01:40:44;24.50;;;19.50;;
64633;SDS011;51043;52.406;9.690;2023-05-07T01:43:13;25.73;;;19.73;;
64633;SDS011;51043;52.406;9.690;2023-05-07T01:45:41;22.97;;;19.63;;
64633;SDS011;51043;52.406;9.690;2023-05-07T01:48:11;25.00;;;19.47;;
64633;SDS011;51043;52.406;9.690;2023-05-07T01:50:41;26.50;;;20.13;;
64633;SDS011;51043;52.406;9.690;2023-05-07T01:53:10;26.17;;;20.67;;
64633;SDS011;51043;52.406;9.690;2023-05-07T01:55:44;24.20;;;19.33;;
64633;SDS011;51043;52.406;9.690;2023-05-07T01:58:12;29.03;;;20.73;;
64633;SDS011;51043;52.406;9.690;2023-05-07T02:00:40;27.50;;;20.50;;
64633;SDS011;51043;52.406;9.690;2023-05-07T02:03:09;25.47;;;20.03;;
64633;SDS011;51043;52.406;9.690;2023-05-07T02:05:44;25.80;;;20.30;;
64633;SDS011;51043;52.406;9.690;2023-05-07T02:08:28;24.27;;;18.67;;
64633;SDS011;51043;52.406;9.690;2023-05-07T02:10:58;22.57;;;19.07;;
64633;SDS011;51043;52.406;9.690;2023-05-07T02:13:26;23.63;;;17.00;;
64633;SDS011;51043;52.406;9.690;2023-05-07T02:15:56;24.70;;;16.80;;
64633;SDS011;51043;52.406;9.690;2023-05-07T02:18:26;21.83;;;16.00;;
64633;SDS011;51043;52.406;9.690;2023-05-07T02:20:54;19.53;;;16.10;;
64633;SDS011;51043;52.406;9.690;2023-05-07T02:23:22;17.90;;;14.77;;
64633;SDS011;51043;52.406;9.690;2023-05-07T02:25:50;15.83;;;13.80;;
64633;SDS011;51043;52.406;9.690;2023-05-07T02:28:20;16.23;;;12.93;;
64633;SDS011;51043;52.406;9.690;2023-05-07T02:30:55;16.60;;;13.50;;
64633;SDS011;51043;52.406;9.690;2023-05-07T02:33:24;15.70;;;12.33;;
64633;SDS011;51043;52.406;9.690;2023-05-07T02:35:53;16.50;;;12.57;;
64633;SDS011;51043;52.406;9.690;2023-05-07T02:38:21;14.20;;;11.47;;
64633;SDS011;51043;52.406;9.690;2023-05-07T02:40:49;12.47;;;10.73;;
64633;SDS011;51043;52.406;9.690;2023-05-07T02:43:17;12.53;;;10.37;;
64633;SDS011;51043;52.406;9.690;2023-05-07T02:45:48;13.17;;;11.57;;
64633;SDS011;51043;52.406;9.690;2023-05-07T02:48:16;12.93;;;10.70;;
64633;SDS011;51043;52.406;9.690;2023-05-07T02:50:44;12.10;;;10.47;;
64633;SDS011;51043;52.406;9.690;2023-05-07T02:53:13;13.97;;;11.47;;
64633;SDS011;51043;52.406;9.690;2023-05-07T02:55:41;11.40;;;10.20;;
64633;SDS011;51043;52.406;9.690;2023-05-07T02:58:10;12.87;;;10.10;;
64633;SDS011;51043;52.406;9.690;2023-05-07T03:00:42;13.83;;;9.67;;
64633;SDS011;51043;52.406;9.690;2023-05-07T03:03:20;14.10;;;10.50;;
64633;SDS011;51043;52.406;9.690;2023-05-07T03:05:48;11.70;;;10.40;;
64633;SDS011;51043;52.406;9.690;2023-05-07T03:08:16;14.73;;;11.33;;
64633;SDS011;51043;52.406;9.690;2023-05-07T03:10:44;12.23;;;10.37;;
64633;SDS011;51043;52.406;9.690;2023-05-07T03:13:13;14.90;;;10.63;;
64633;SDS011;51043;52.406;9.690;2023-05-07T03:15:45;11.10;;;9.90;;
64633;SDS011;51043;52.406;9.690;2023-05-07T03:18:13;11.97;;;10.40;;
64633;SDS011;51043;52.406;9.690;2023-05-07T03:20:41;12.47;;;10.23;;
64633;SDS011;51043;52.406;9.690;2023-05-07T03:23:10;13.37;;;10.10;;
64633;SDS011;51043;52.406;9.690;2023-05-07T03:25:38;12.73;;;10.77;;
64633;SDS011;51043;52.406;9.690;2023-05-07T03:28:09;12.47;;;10.60;;
64633;SDS011;51043;52.406;9.690;2023-05-07T03:30:43;14.43;;;11.27;;
64633;SDS011;51043;52.406;9.690;2023-05-07T03:33:12;13.50;;;10.90;;
64633;SDS011;51043;52.406;9.690;2023-05-07T03:35:40;12.27;;;10.97;;
64633;SDS011;51043;52.406;9.690;2023-05-07T03:38:09;14.13;;;11.20;;
64633;SDS011;51043;52.406;9.690;2023-05-07T03:40:37;12.53;;;10.57;;
64633;SDS011;51043;52.406;9.690;2023-05-07T03:43:07;12.07;;;9.73;;
64633;SDS011;51043;52.406;9.690;2023-05-07T03:45:42;12.50;;;9.90;;
64633;SDS011;51043;52.406;9.690;2023-05-07T03:48:19;12.17;;;10.27;;
64633;SDS011;51043;52.406;9.690;2023-05-07T03:50:49;11.67;;;9.33;;
64633;SDS011;51043;52.406;9.690;2023-05-07T03:53:19;10.60;;;9.50;;
64633;SDS011;51043;52.406;9.690;2023-05-07T03:55:47;13.50;;;9.33;;
64633;SDS011;51043;52.406;9.690;2023-05-07T03:58:16;11.53;;;9.47;;
64633;SDS011;51043;52.406;9.690;2023-05-07T04:00:45;12.23;;;9.70;;
64633;SDS011;51043;52.406;9.690;2023-05-07T04:03:22;11.27;;;9.33;;
64633;SDS011;51043;52.406;9.690;2023-05-07T04:05:51;11.03;;;9.63;;
64633;SDS011;51043;52.406;9.690;2023-05-07T04:08:20;11.10;;;9.43;;
64633;SDS011;51043;52.406;9.690;2023-05-07T04:10:54;9.80;;;8.60;;
64633;SDS011;51043;52.406;9.690;2023-05-07T04:13:24;10.07;;;8.17;;
64633;SDS011;51043;52.406;9.690;2023-05-07T04:15:54;9.83;;;8.33;;
64633;SDS011;51043;52.406;9.690;2023-05-07T04:18:25;11.80;;;8.97;;
64633;SDS011;51043;52.406;9.690;2023-05-07T04:20:53;10.60;;;9.20;;
64633;SDS011;51043;52.406;9.690;2023-05-07T04:23:21;10.33;;;8.80;;
64633;SDS011;51043;52.406;9.690;2023-05-07T04:25:49;10.93;;;9.33;;
64633;SDS011;51043;52.406;9.690;2023-05-07T04:28:32;10.13;;;9.03;;
64633;SDS011;51043;52.406;9.690;2023-05-07T04:31:01;9.63;;;8.50;;
64633;SDS011;51043;52.406;9.690;2023-05-07T04:33:33;10.00;;;8.83;;
64633;SDS011;51043;52.406;9.690;2023-05-07T04:36:03;9.93;;;8.80;;
64633;SDS011;51043;52.406;9.690;2023-05-07T04:38:45;10.10;;;8.97;;
64633;SDS011;51043;52.406;9.690;2023-05-07T04:41:13;10.27;;;9.23;;
64633;SDS011;51043;52.406;9.690;2023-05-07T04:43:42;11.53;;;9.67;;
64633;SDS011;51043;52.406;9.690;2023-05-07T04:46:12;10.90;;;9.50;;
64633;SDS011;51043;52.406;9.690;2023-05-07T04:48:43;11.17;;;9.20;;
64633;SDS011;51043;52.406;9.690;2023-05-07T04:51:11;15.60;;;10.10;;
64633;SDS011;51043;52.406;9.690;2023-05-07T04:53:39;12.17;;;9.70;;
64633;SDS011;51043;52.406;9.690;2023-05-07T04:56:10;9.83;;;8.83;;
64633;SDS011;51043;52.406;9.690;2023-05-07T04:58:44;11.27;;;9.77;;
64633;SDS011;51043;52.406;9.690;2023-05-07T05:01:13;10.17;;;9.07;;
64633;SDS011;51043;52.406;9.690;2023-05-07T05:03:47;11.83;;;9.37;;
64633;SDS011;51043;52.406;9.690;2023-05-07T05:06:15;8.57;;;7.67;;
64633;SDS011;51043;52.406;9.690;2023-05-07T05:08:43;11.67;;;9.63;;
64633;SDS011;51043;52.406;9.690;2023-05-07T05:11:11;10.30;;;9.07;;
64633;SDS011;51043;52.406;9.690;2023-05-07T05:13:39;11.30;;;9.17;;
64633;SDS011;51043;52.406;9.690;2023-05-07T05:16:15;11.13;;;8.80;;
64633;SDS011;51043;52.406;9.690;2023-05-07T05:18:44;10.83;;;9.73;;
64633;SDS011;51043;52.406;9.690;2023-05-07T05:21:16;8.47;;;7.67;;
64633;SDS011;51043;52.406;9.690;2023-05-07T05:23:46;9.17;;;8.23;;
64633;SDS011;51043;52.406;9.690;2023-05-07T05:26:18;9.40;;;8.27;;
64633;SDS011;51043;52.406;9.690;2023-05-07T05:28:47;9.60;;;8.10;;
64633;SDS011;51043;52.406;9.690;2023-05-07T05:31:19;8.90;;;7.80;;
64633;SDS011;51043;52.406;9.690;2023-05-07T05:33:50;8.67;;;7.77;;
64633;SDS011;51043;52.406;9.690;2023-05-07T05:36:20;9.70;;;8.67;;
64633;SDS011;51043;52.406;9.690;2023-05-07T05:38:50;9.87;;;8.47;;
64633;SDS011;51043;52.406;9.690;2023-05-07T05:41:18;9.10;;;8.10;;
64633;SDS011;51043;52.406;9.690;2023-05-07T05:43:46;9.23;;;8.33;;
64633;SDS011;51043;52.406;9.690;2023-05-07T05:46:17;9.80;;;8.07;;
64633;SDS011;51043;52.406;9.690;2023-05-07T05:48:49;10.07;;;9.07;;
64633;SDS011;51043;52.406;9.690;2023-05-07T05:51:20;10.33;;;8.90;;
64633;SDS011;51043;52.406;9.690;2023-05-07T05:53:49;10.00;;;8.37;;
64633;SDS011;51043;52.406;9.690;2023-05-07T05:56:18;11.60;;;8.40;;
64633;SDS011;51043;52.406;9.690;2023-05-07T05:58:47;8.87;;;7.47;;
64633;SDS011;51043;52.406;9.690;2023-05-07T06:01:15;8.57;;;7.70;;
64633;SDS011;51043;52.406;9.690;2023-05-07T06:03:45;8.70;;;7.53;;
64633;SDS011;51043;52.406;9.690;2023-05-07T06:06:14;8.77;;;7.67;;
64633;SDS011;51043;52.406;9.690;2023-05-07T06:08:46;8.47;;;7.27;;
64633;SDS011;51043;52.406;9.690;2023-05-07T06:11:19;8.10;;;7.30;;
64633;SDS011;51043;52.406;9.690;2023-05-07T06:13:47;8.20;;;7.40;;
64633;SDS011;51043;52.406;9.690;2023-05-07T06:16:15;7.83;;;7.03;;
64633;SDS011;51043;52.406;9.690;2023-05-07T06:18:43;8.87;;;7.43;;
64633;SDS011;51043;52.406;9.690;2023-05-07T06:21:14;8.17;;;7.33;;
64633;SDS011;51043;52.406;9.690;2023-05-07T06:23:42;9.43;;;7.50;;
64633;SDS011;51043;52.406;9.690;2023-05-07T06:26:12;7.63;;;6.83;;
64633;SDS011;51043;52.406;9.690;2023-05-07T06:28:42;7.97;;;7.17;;
64633;SDS011;51043;52.406;9.690;2023-05-07T06:31:13;8.07;;;7.17;;
64633;SDS011;51043;52.406;9.690;2023-05-07T06:33:46;8.30;;;7.20;;
64633;SDS011;51043;52.406;9.690;2023-05-07T06:36:14;7.60;;;6.90;;
64633;SDS011;51043;52.406;9.690;2023-05-07T06:38:54;7.50;;;6.80;;
64633;SDS011;51043;52.406;9.690;2023-05-07T06:41:23;10.83;;;7.43;;
64633;SDS011;51043;52.406;9.690;2023-05-07T06:43:53;7.23;;;6.30;;
64633;SDS011;51043;52.406;9.690;2023-05-07T06:46:44;6.97;;;6.23;;
64633;SDS011;51043;52.406;9.690;2023-05-07T06:49:13;6.70;;;6.10;;
64633;SDS011;51043;52.406;9.690;2023-05-07T06:51:47;6.60;;;5.90;;
64633;SDS011;51043;52.406;9.690;2023-05-07T06:54:15;7.13;;;6.20;;
64633;SDS011;51043;52.406;9.690;2023-05-07T06:56:44;7.23;;;6.53;;
64633;SDS011;51043;52.406;9.690;2023-05-07T06:59:12;6.50;;;5.90;;
64633;SDS011;51043;52.406;9.690;2023-05-07T07:01:44;6.93;;;6.33;;
64633;SDS011;51043;52.406;9.690;2023-05-07T07:04:12;6.93;;;6.33;;
64633;SDS011;51043;52.406;9.690;2023-05-07T07:06:45;7.53;;;6.83;;
64633;SDS011;51043;52.406;9.690;2023-05-07T07:09:13;8.37;;;7.57;;
64633;SDS011;51043;52.406;9.690;2023-05-07T07:11:46;8.40;;;7.27;;
64633;SDS011;51043;52.406;9.690;2023-05-07T07:14:14;8.10;;;7.30;;
64633;SDS011;51043;52.406;9.690;2023-05-07T07:16:47;7.60;;;6.90;;
64633;SDS011;51043;52.406;9.690;2023-05-07T07:19:17;10.03;;;7.73;;
64633;SDS011;51043;52.406;9.690;2023-05-07T07:21:49;8.40;;;7.70;;
64633;SDS011;51043;52.406;9.690;2023-05-07T07:24:17;9.67;;;8.77;;
64633;SDS011;51043;52.406;9.690;2023-05-07T07:26:52;8.83;;;8.03;;
64633;SDS011;51043;52.406;9.690;2023-05-07T07:29:22;9.20;;;8.13;;
64633;SDS011;51043;52.406;9.690;2023-05-07T07:31:53;10.43;;;8.27;;
64633;SDS011;51043;52.406;9.690;2023-05-07T07:34:21;9.43;;;8.53;;
64633;SDS011;51043;52.406;9.690;2023-05-07T07:36:49;10.47;;;8.10;;
64633;SDS011;51043;52.406;9.690;2023-05-07T07:39:18;9.30;;;8.23;;
64633;SDS011;51043;52.406;9.690;2023-05-07T07:41:49;8.90;;;8.10;;
64633;SDS011;51043;52.406;9.690;2023-05-07T07:44:20;8.90;;;8.10;;
64633;SDS011;51043;52.406;9.690;2023-05-07T07:46:54;9.13;;;7.87;;
64633;SDS011;51043;52.406;9.690;2023-05-07T07:49:24;8.60;;;7.70;;
64633;SDS011;51043;52.406;9.690;2023-05-07T07:51:53;7.93;;;7.23;;
64633;SDS011;51043;52.406;9.690;2023-05-07T07:54:22;8.77;;;7.97;;
64633;SDS011;51043;52.406;9.690;2023-05-07T07:56:51;8.27;;;7.57;;
64633;SDS011;51043;52.406;9.690;2023-05-07T07:59:21;8.37;;;7.27;;
64633;SDS011;51043;52.406;9.690;2023-05-07T08:01:49;8.03;;;6.97;;
64633;SDS011;51043;52.406;9.690;2023-05-07T08:04:20;7.53;;;6.83;;
64633;SDS011;51043;52.406;9.690;2023-05-07T08:06:48;8.97;;;6.90;;
64633;SDS011;51043;52.406;9.690;2023-05-07T08:09:16;7.47;;;6.67;;
64633;SDS011;51043;52.406;9.690;2023-05-07T08:11:46;7.17;;;6.53;;
64633;SDS011;51043;52.406;9.690;2023-05-07T08:14:15;7.27;;;6.57;;
64633;SDS011;51043;52.406;9.690;2023-05-07T08:16:47;6.67;;;5.97;;
64633;SDS011;51043;52.406;9.690;2023-05-07T08:19:15;8.17;;;6.53;;
64633;SDS011;51043;52.406;9.690;2023-05-07T08:21:44;8.83;;;6.67;;
64633;SDS011;51043;52.406;9.690;2023-05-07T08:24:15;12.33;;;6.57;;
64633;SDS011;51043;52.406;9.690;2023-05-07T08:26:45;6.90;;;6.20;;
64633;SDS011;51043;52.406;9.690;2023-05-07T08:29:13;6.80;;;6.03;;
64633;SDS011;51043;52.406;9.690;2023-05-07T08:31:42;6.77;;;6.17;;
64633;SDS011;51043;52.406;9.690;2023-05-07T08:34:13;6.63;;;5.93;;
64633;SDS011;51043;52.406;9.690;2023-05-07T08:36:44;7.73;;;6.93;;
64633;SDS011;51043;52.406;9.690;2023-05-07T08:39:17;8.63;;;6.33;;
64633;SDS011;51043;52.406;9.690;2023-05-07T08:41:48;7.07;;;6.10;;
64633;SDS011;51043;52.406;9.690;2023-05-07T08:44:20;8.70;;;6.27;;
64633;SDS011;51043;52.406;9.690;2023-05-07T08:46:55;6.63;;;5.93;;
64633;SDS011;51043;52.406;9.690;2023-05-07T08:49:26;8.97;;;6.37;;
64633;SDS011;51043;52.406;9.690;2023-05-07T08:51:55;6.83;;;6.13;;
64633;SDS011;51043;52.406;9.690;2023-05-07T08:54:24;7.77;;;6.37;;
64633;SDS011;51043;52.406;9.690;2023-05-07T08:56:53;6.40;;;5.80;;
64633;SDS011;51043;52.406;9.690;2023-05-07T08:59:22;7.63;;;6.53;;
64633;SDS011;51043;52.406;9.690;2023-05-07T09:01:51;7.47;;;6.73;;
64633;SDS011;51043;52.406;9.690;2023-05-07T09:04:19;7.20;;;6.50;;
64633;SDS011;51043;52.406;9.690;2023-05-07T09:06:49;7.10;;;6.40;;
64633;SDS011;51043;52.406;9.690;2023-05-07T09:09:21;6.80;;;6.10;;
64633;SDS011;51043;52.406;9.690;2023-05-07T09:11:56;7.53;;;6.40;;
64633;SDS011;51043;52.406;9.690;2023-05-07T09:14:28;6.90;;;6.20;;
64633;SDS011;51043;52.406;9.690;2023-05-07T09:16:56;7.97;;;6.63;;
64633;SDS011;51043;52.406;9.690;2023-05-07T09:19:25;8.60;;;7.07;;
64633;SDS011;51043;52.406;9.690;2023-05-07T09:22:02;7.17;;;6.43;;
64633;SDS011;51043;52.406;9.690;2023-05-07T09:24:47;8.70;;;6.60;;
64633;SDS011;51043;52.406;9.690;2023-05-07T09:27:18;8.03;;;7.23;;
64633;SDS011;51043;52.406;9.690;2023-05-07T09:29:46;10.83;;;7.00;;
64633;SDS011;51043;52.406;9.690;2023-05-07T09:32:15;8.67;;;7.03;;
64633;SDS011;51043;52.406;9.690;2023-05-07T09:34:43;8.37;;;7.30;;
64633;SDS011;51043;52.406;9.690;2023-05-07T09:37:19;7.20;;;6.50;;
64633;SDS011;51043;52.406;9.690;2023-05-07T09:39:48;8.60;;;7.00;;
64633;SDS011;51043;52.406;9.690;2023-05-07T09:42:22;7.10;;;6.40;;
64633;SDS011;51043;52.406;9.690;2023-05-07T09:44:53;7.87;;;7.07;;
64633;SDS011;51043;52.406;9.690;2023-05-07T09:47:24;7.60;;;6.80;;
64633;SDS011;51043;52.406;9.690;2023-05-07T09:50:01;7.60;;;6.90;;
64633;SDS011;51043;52.406;9.690;2023-05-07T09:52:34;10.57;;;6.60;;
64633;SDS011;51043;52.406;9.690;2023-05-07T09:55:04;7.60;;;6.67;;
64633;SDS011;51043;52.406;9.690;2023-05-07T09:57:33;7.77;;;6.97;;
64633;SDS011;51043;52.406;9.690;2023-05-07T10:00:06;12.80;;;6.70;;
64633;SDS011;51043;52.406;9.690;2023-05-07T10:02:47;7.60;;;6.90;;
64633;SDS011;51043;52.406;9.690;2023-05-07T10:05:23;7.60;;;6.90;;
64633;SDS011;51043;52.406;9.690;2023-05-07T10:07:57;7.57;;;6.80;;
64633;SDS011;51043;52.406;9.690;2023-05-07T10:10:27;7.30;;;6.60;;
64633;SDS011;51043;52.406;9.690;2023-05-07T10:12:56;7.90;;;7.10;;
64633;SDS011;51043;52.406;9.690;2023-05-07T10:15:31;7.10;;;6.50;;
64633;SDS011;51043;52.406;9.690;2023-05-07T10:18:01;7.63;;;6.83;;
64633;SDS011;51043;52.406;9.690;2023-05-07T10:20:31;8.17;;;7.10;;
64633;SDS011;51043;52.406;9.690;2023-05-07T10:23:02;7.67;;;6.93;;
64633;SDS011;51043;52.406;9.690;2023-05-07T10:25:39;8.13;;;7.10;;
64633;SDS011;51043;52.406;9.690;2023-05-07T10:28:15;7.70;;;7.00;;
64633;SDS011;51043;52.406;9.690;2023-05-07T10:30:52;10.17;;;7.67;;
64633;SDS011;51043;52.406;9.690;2023-05-07T10:33:33;9.20;;;8.20;;
64633;SDS011;51043;52.406;9.690;2023-05-07T10:36:03;14.90;;;7.53;;
64633;SDS011;51043;52.406;9.690;2023-05-07T10:38:35;7.60;;;6.90;;
64633;SDS011;51043;52.406;9.690;2023-05-07T10:41:04;9.13;;;7.70;;
64633;SDS011;51043;52.406;9.690;2023-05-07T10:43:39;7.63;;;6.93;;
64633;SDS011;51043;52.406;9.690;2023-05-07T10:46:19;7.30;;;6.60;;
64633;SDS011;51043;52.406;9.690;2023-05-07T10:49:06;7.43;;;6.63;;
64633;SDS011;51043;52.406;9.690;2023-05-07T10:51:40;8.70;;;6.50;;
64633;SDS011;51043;52.406;9.690;2023-05-07T10:54:26;9.20;;;6.40;;
64633;SDS011;51043;52.406;9.690;2023-05-07T11:00:41;7.13;;;5.90;;
64633;SDS011;51043;52.406;9.690;2023-05-07T11:03:20;6.47;;;5.87;;
64633;SDS011;51043;52.406;9.690;2023-05-07T11:06:09;6.57;;;5.97;;
64633;SDS011;51043;52.406;9.690;2023-05-07T11:08:55;6.57;;;5.87;;
64633;SDS011;51043;52.406;9.690;2023-05-07T11:11:48;6.03;;;5.43;;
64633;SDS011;51043;52.406;9.690;2023-05-07T11:14:44;5.90;;;5.33;;
64633;SDS011;51043;52.406;9.690;2023-05-07T11:17:29;8.53;;;5.63;;
64633;SDS011;51043;52.406;9.690;2023-05-07T11:20:02;5.80;;;5.20;;
64633;SDS011;51043;52.406;9.690;2023-05-07T11:22:51;5.77;;;5.20;;
64633;SDS011;51043;52.406;9.690;2023-05-07T11:25:28;7.37;;;5.90;;
64633;SDS011;51043;52.406;9.690;2023-05-07T11:28:16;7.93;;;5.40;;
64633;SDS011;51043;52.406;9.690;2023-05-07T11:30:52;6.73;;;5.47;;
64633;SDS011;51043;52.406;9.690;2023-05-07T11:33:20;7.43;;;5.20;;
64633;SDS011;51043;52.406;9.690;2023-05-07T11:35:55;5.37;;;4.87;;
64633;SDS011;51043;52.406;9.690;2023-05-07T11:38:30;6.72;;;4.90;;
64633;SDS011;51043;52.406;9.690;2023-05-07T11:41:02;9.35;;;5.00;;
64633;SDS011;51043;52.406;9.690;2023-05-07T11:43:33;8.05;;;4.82;;
64633;SDS011;51043;52.406;9.690;2023-05-07T11:46:05;5.80;;;5.20;;
64633;SDS011;51043;52.406;9.690;2023-05-07T11:48:35;5.82;;;5.13;;
64633;SDS011;51043;52.406;9.690;2023-05-07T11:51:04;5.43;;;4.93;;
64633;SDS011;51043;52.406;9.690;2023-05-07T11:53:35;5.78;;;4.82;;
64633;SDS011;51043;52.406;9.690;2023-05-07T11:56:08;5.80;;;5.20;;
64633;SDS011;51043;52.406;9.690;2023-05-07T11:58:39;5.18;;;4.70;;
64633;SDS011;51043;52.406;9.690;2023-05-07T12:01:08;5.18;;;4.70;;
64633;SDS011;51043;52.406;9.690;2023-05-07T12:03:37;7.13;;;5.10;;
64633;SDS011;51043;52.406;9.690;2023-05-07T12:06:08;5.00;;;4.50;;
64633;SDS011;51043;52.406;9.690;2023-05-07T12:08:38;7.63;;;4.60;;
64633;SDS011;51043;52.406;9.690;2023-05-07T12:11:14;4.63;;;4.22;;
64633;SDS011;51043;52.406;9.690;2023-05-07T12:13:45;5.25;;;4.40;;
64633;SDS011;51043;52.406;9.690;2023-05-07T12:16:16;8.43;;;4.25;;
64633;SDS011;51043;52.406;9.690;2023-05-07T12:18:45;4.85;;;4.35;;
64633;SDS011;51043;52.406;9.690;2023-05-07T12:21:16;4.18;;;3.72;;
64633;SDS011;51043;52.406;9.690;2023-05-07T12:23:44;4.60;;;4.20;;
64633;SDS011;51043;52.406;9.690;2023-05-07T12:26:19;6.53;;;4.65;;
64633;SDS011;51043;52.406;9.690;2023-05-07T12:28:54;6.90;;;4.35;;
64633;SDS011;51043;52.406;9.690;2023-05-07T12:31:25;6.97;;;4.43;;
64633;SDS011;51043;52.406;9.690;2023-05-07T12:33:53;5.37;;;4.40;;
64633;SDS011;51043;52.406;9.690;2023-05-07T12:36:21;4.93;;;4.22;;
64633;SDS011;51043;52.406;9.690;2023-05-07T12:38:53;5.10;;;3.93;;
64633;SDS011;51043;52.406;9.690;2023-05-07T12:41:22;4.35;;;3.95;;
64633;SDS011;51043;52.406;9.690;2023-05-07T12:43:57;4.60;;;4.07;;
64633;SDS011;51043;52.406;9.690;2023-05-07T12:46:25;6.20;;;3.90;;
64633;SDS011;51043;52.406;9.690;2023-05-07T12:48:53;4.10;;;3.70;;
64633;SDS011;51043;52.406;9.690;2023-05-07T12:51:21;4.00;;;3.70;;
64633;SDS011;51043;52.406;9.690;2023-05-07T12:53:50;3.77;;;3.47;;
64633;SDS011;51043;52.406;9.690;2023-05-07T12:56:18;4.93;;;3.53;;
64633;SDS011;51043;52.406;9.690;2023-05-07T12:58:56;5.40;;;3.40;;
64633;SDS011;51043;52.406;9.690;2023-05-07T13:01:28;4.30;;;3.40;;
64633;SDS011;51043;52.406;9.690;2023-05-07T13:04:00;4.20;;;3.80;;
64633;SDS011;51043;52.406;9.690;2023-05-07T13:06:32;3.70;;;3.40;;
64633;SDS011;51043;52.406;9.690;2023-05-07T13:09:00;4.57;;;3.40;;
64633;SDS011;51043;52.406;9.690;2023-05-07T13:11:28;4.10;;;3.17;;
64633;SDS011;51043;52.406;9.690;2023-05-07T13:13:56;4.32;;;3.83;;
64633;SDS011;51043;52.406;9.690;2023-05-07T13:16:25;5.40;;;4.20;;
64633;SDS011;51043;52.406;9.690;2023-05-07T13:18:53;6.40;;;4.82;;
64633;SDS011;51043;52.406;9.690;2023-05-07T13:21:21;4.05;;;3.63;;
64633;SDS011;51043;52.406;9.690;2023-05-07T13:23:49;3.97;;;3.60;;
64633;SDS011;51043;52.406;9.690;2023-05-07T13:26:17;5.55;;;3.70;;
64633;SDS011;51043;52.406;9.690;2023-05-07T13:28:51;3.63;;;3.30;;
64633;SDS011;51043;52.406;9.690;2023-05-07T13:31:19;4.57;;;3.40;;
64633;SDS011;51043;52.406;9.690;2023-05-07T13:33:52;5.28;;;4.03;;
64633;SDS011;51043;52.406;9.690;2023-05-07T13:36:22;4.35;;;3.67;;
64633;SDS011;51043;52.406;9.690;2023-05-07T13:38:53;4.63;;;4.00;;
64633;SDS011;51043;52.406;9.690;2023-05-07T13:41:21;4.30;;;3.38;;
64633;SDS011;51043;52.406;9.690;2023-05-07T13:43:49;6.88;;;3.72;;
64633;SDS011;51043;52.406;9.690;2023-05-07T13:46:17;5.20;;;3.90;;
64633;SDS011;51043;52.406;9.690;2023-05-07T13:48:46;5.70;;;3.30;;
64633;SDS011;51043;52.406;9.690;2023-05-07T13:51:23;3.58;;;3.25;;
64633;SDS011;51043;52.406;9.690;2023-05-07T13:53:52;5.00;;;4.43;;
64633;SDS011;51043;52.406;9.690;2023-05-07T13:56:20;4.10;;;3.70;;
64633;SDS011;51043;52.406;9.690;2023-05-07T13:58:49;3.58;;;3.28;;
64633;SDS011;51043;52.406;9.690;2023-05-07T14:01:24;4.38;;;3.50;;
64633;SDS011;51043;52.406;9.690;2023-05-07T14:03:52;5.78;;;4.00;;
64633;SDS011;51043;52.406;9.690;2023-05-07T14:06:20;5.28;;;4.32;;
64633;SDS011;51043;52.406;9.690;2023-05-07T14:08:51;4.80;;;4.30;;
64633;SDS011;51043;52.406;9.690;2023-05-07T14:11:19;4.78;;;4.10;;
64633;SDS011;51043;52.406;9.690;2023-05-07T14:13:48;4.53;;;3.90;;
64633;SDS011;51043;52.406;9.690;2023-05-07T14:16:16;6.15;;;3.97;;
64633;SDS011;51043;52.406;9.690;2023-05-07T14:18:45;6.43;;;3.88;;
64633;SDS011;51043;52.406;9.690;2023-05-07T14:21:14;4.78;;;3.80;;
64633;SDS011;51043;52.406;9.690;2023-05-07T14:23:44;6.05;;;3.90;;
64633;SDS011;51043;52.406;9.690;2023-05-07T14:26:21;5.38;;;4.07;;
64633;SDS011;51043;52.406;9.690;2023-05-07T14:28:49;4.95;;;4.13;;
64633;SDS011;51043;52.406;9.690;2023-05-07T14:31:18;4.13;;;3.72;;
64633;SDS011;51043;52.406;9.690;2023-05-07T14:33:46;4.47;;;3.80;;
64633;SDS011;51043;52.406;9.690;2023-05-07T14:36:18;4.57;;;3.90;;
64633;SDS011;51043;52.406;9.690;2023-05-07T14:38:56;6.68;;;3.85;;
64633;SDS011;51043;52.406;9.690;2023-05-07T14:41:25;9.13;;;4.40;;
64633;SDS011;51043;52.406;9.690;2023-05-07T14:43:53;4.35;;;3.95;;
64633;SDS011;51043;52.406;9.690;2023-05-07T14:46:21;4.80;;;4.40;;
64633;SDS011;51043;52.406;9.690;2023-05-07T14:48:51;4.68;;;4.18;;
64633;SDS011;51043;52.406;9.690;2023-05-07T14:51:19;5.35;;;4.50;;
64633;SDS011;51043;52.406;9.690;2023-05-07T14:53:55;5.45;;;4.00;;
64633;SDS011;51043;52.406;9.690;2023-05-07T14:56:23;5.85;;;4.88;;
64633;SDS011;51043;52.406;9.690;2023-05-07T14:58:51;4.88;;;4.38;;
64633;SDS011;51043;52.406;9.690;2023-05-07T15:01:20;5.45;;;4.60;;
64633;SDS011;51043;52.406;9.690;2023-05-07T15:03:51;5.32;;;4.78;;